Time;durP1;ratioP1;P1;durP2;ratioP2;P2;SDS_P1;SDS_P2;PMS_P1;PMS_P2;Temp;Humidity;BMP_temperature;BMP_pressure;BME280_temperature;BME280_humidity;BME280_pressure;Samples;Min_cycle;Max_cycle;Signal;HPM_P1;HPM_P2
2022/06/06 00:01:38;;;;;;;3.10;2.17;;;;;;;;;;5064611;28;20197;-69
2022/06/06 00:04:05;;;;;;;3.35;1.70;;;;;;;;;;5064033;28;20208;-69
2022/06/06 00:06:32;;;;;;;1.60;1.50;;;;;;;;;;5064199;28;20217;-69
2022/06/06 00:08:58;;;;;;;2.25;2.08;;;;;;;;;;5064415;28;20200;-69
2022/06/06 00:11:25;;;;;;;2.58;1.60;;;;;;;;;;5063859;28;20392;-69
2022/06/06 00:13:51;;;;;;;1.98;1.90;;;;;;;;;;5064270;28;20197;-69
2022/06/06 00:16:17;;;;;;;2.22;2.08;;;;;;;;;;5064087;28;20220;-69
2022/06/06 00:18:44;;;;;;;2.95;2.35;;;;;;;;;;5064137;28;20424;-69
2022/06/06 00:21:12;;;;;;;5.05;2.03;;;;;;;;;;5063910;28;20220;-69
2022/06/06 00:23:38;;;;;;;5.00;2.35;;;;;;;;;;5064042;28;20200;-69
2022/06/06 00:26:05;;;;;;;4.25;2.45;;;;;;;;;;5063663;28;20461;-69
2022/06/06 00:28:31;;;;;;;2.10;1.95;;;;;;;;;;5063879;28;20516;-69
2022/06/06 00:30:58;;;;;;;2.45;2.25;;;;;;;;;;5063989;28;20512;-69
2022/06/06 00:36:08;;;;;;;5.32;2.30;;;;;;;;;;5063598;28;20207;-69
2022/06/06 00:38:35;;;;;;;5.13;2.47;;;;;;;;;;5063500;28;20196;-69
2022/06/06 00:41:02;;;;;;;2.83;2.17;;;;;;;;;;5063500;28;20225;-69
2022/06/06 00:43:28;;;;;;;2.35;2.25;;;;;;;;;;5063700;28;20201;-69
2022/06/06 00:45:56;;;;;;;2.60;2.17;;;;;;;;;;5063459;28;20197;-69
2022/06/06 00:48:24;;;;;;;5.30;2.45;;;;;;;;;;5063415;28;20501;-69
2022/06/06 00:50:56;;;;;;;2.30;2.13;;;;;;;;;;5063401;28;20193;-69
2022/06/06 00:53:24;;;;;;;3.17;2.05;;;;;;;;;;5063222;28;20197;-69
2022/06/06 00:55:55;;;;;;;2.20;2.03;;;;;;;;;;5063546;28;20197;-69
2022/06/06 00:58:23;;;;;;;2.00;2.00;;;;;;;;;;5063380;28;20197;-69
2022/06/06 01:00:49;;;;;;;3.50;2.55;;;;;;;;;;5063293;28;20229;-69
2022/06/06 01:03:17;;;;;;;3.38;2.20;;;;;;;;;;5063310;28;20197;-69
2022/06/06 01:05:44;;;;;;;3.47;2.42;;;;;;;;;;5062874;28;20225;-69
2022/06/06 01:08:11;;;;;;;2.55;2.35;;;;;;;;;;5063047;28;20201;-69
2022/06/06 01:10:37;;;;;;;3.15;2.22;;;;;;;;;;5063169;28;20493;-69
2022/06/06 01:13:08;;;;;;;3.38;2.33;;;;;;;;;;5062914;28;20197;-69
2022/06/06 01:15:41;;;;;;;2.83;2.03;;;;;;;;;;5062972;28;20243;-69
2022/06/06 01:18:11;;;;;;;2.40;2.20;;;;;;;;;;5062511;28;20197;-69
2022/06/06 01:20:45;;;;;;;1.90;1.90;;;;;;;;;;5063060;28;20221;-69
2022/06/06 01:23:22;;;;;;;3.35;2.33;;;;;;;;;;5062480;28;20197;-69
2022/06/06 01:26:01;;;;;;;3.55;2.40;;;;;;;;;;5062801;28;20205;-69
2022/06/06 01:28:34;;;;;;;4.35;2.50;;;;;;;;;;5062662;28;20372;-69
2022/06/06 01:31:04;;;;;;;3.60;2.33;;;;;;;;;;5062746;28;20202;-69
2022/06/06 01:33:31;;;;;;;2.97;2.35;;;;;;;;;;5062885;28;20422;-69
2022/06/06 01:36:00;;;;;;;3.63;2.42;;;;;;;;;;5062713;28;20527;-69
2022/06/06 01:38:27;;;;;;;4.35;2.45;;;;;;;;;;5062569;28;20197;-69
2022/06/06 01:40:55;;;;;;;4.07;2.38;;;;;;;;;;5061741;28;20579;-69
2022/06/06 01:43:26;;;;;;;3.80;2.30;;;;;;;;;;5062380;28;20204;-69
2022/06/06 01:45:55;;;;;;;7.72;2.63;;;;;;;;;;5062409;28;20197;-69
2022/06/06 01:48:23;;;;;;;7.20;2.40;;;;;;;;;;5062237;28;20208;-69
2022/06/06 01:50:50;;;;;;;8.75;2.97;;;;;;;;;;5062295;28;20432;-69
2022/06/06 01:53:18;;;;;;;4.20;2.30;;;;;;;;;;5062542;28;20201;-69
2022/06/06 01:55:45;;;;;;;3.58;2.70;;;;;;;;;;5062484;28;20479;-69
2022/06/06 01:58:12;;;;;;;4.63;2.40;;;;;;;;;;5062070;28;20200;-69
2022/06/06 02:00:39;;;;;;;2.70;2.38;;;;;;;;;;5062213;28;20404;-69
2022/06/06 02:03:08;;;;;;;7.85;2.65;;;;;;;;;;5062207;28;20197;-69
2022/06/06 02:05:34;;;;;;;2.72;2.42;;;;;;;;;;5061956;28;20427;-69
2022/06/06 02:08:00;;;;;;;4.28;2.90;;;;;;;;;;5062201;28;20204;-69
2022/06/06 02:10:27;;;;;;;2.78;2.50;;;;;;;;;;5062285;28;20196;-69
2022/06/06 02:12:53;;;;;;;3.15;2.70;;;;;;;;;;5062215;28;20197;-69
2022/06/06 02:15:22;;;;;;;2.80;2.60;;;;;;;;;;5062180;28;20197;-69
2022/06/06 02:17:48;;;;;;;6.75;2.80;;;;;;;;;;5061873;28;20505;-69
2022/06/06 02:20:17;;;;;;;2.28;2.17;;;;;;;;;;5061970;28;20224;-69
2022/06/06 02:22:44;;;;;;;2.53;2.42;;;;;;;;;;5062381;28;20197;-69
2022/06/06 02:25:12;;;;;;;2.97;2.72;;;;;;;;;;5062203;28;20205;-69
2022/06/06 02:27:39;;;;;;;2.90;2.70;;;;;;;;;;5062221;28;20204;-69
2022/06/06 02:30:07;;;;;;;5.43;2.38;;;;;;;;;;5062108;28;20254;-69
2022/06/06 02:32:34;;;;;;;2.70;2.50;;;;;;;;;;5062496;28;20396;-69
2022/06/06 02:35:00;;;;;;;3.38;2.95;;;;;;;;;;5066145;28;20201;-69
2022/06/06 02:37:28;;;;;;;5.75;2.67;;;;;;;;;;5065835;28;20201;-69
2022/06/06 02:39:54;;;;;;;5.43;2.97;;;;;;;;;;5065946;28;20204;-69
2022/06/06 02:42:21;;;;;;;2.90;2.70;;;;;;;;;;5065765;28;20255;-69
2022/06/06 02:44:48;;;;;;;4.97;2.92;;;;;;;;;;5065862;28;20220;-69
2022/06/06 02:47:14;;;;;;;3.47;2.70;;;;;;;;;;5065304;28;20220;-69
2022/06/06 02:49:40;;;;;;;3.72;2.42;;;;;;;;;;5066071;28;20223;-69
2022/06/06 02:52:07;;;;;;;4.55;2.80;;;;;;;;;;5065619;28;20201;-69
2022/06/06 02:54:34;;;;;;;3.90;2.85;;;;;;;;;;5065693;28;20197;-69
2022/06/06 02:57:03;;;;;;;3.15;2.70;;;;;;;;;;5065425;28;20197;-69
2022/06/06 02:59:29;;;;;;;3.28;2.70;;;;;;;;;;5065587;28;20228;-69
2022/06/06 03:01:56;;;;;;;3.33;3.13;;;;;;;;;;5065335;28;20532;-69
2022/06/06 03:04:22;;;;;;;4.30;2.97;;;;;;;;;;5065530;28;20284;-69
2022/06/06 03:06:55;;;;;;;3.63;2.78;;;;;;;;;;5065309;28;20286;-69
2022/06/06 03:09:26;;;;;;;3.05;2.90;;;;;;;;;;5065528;28;20197;-69
2022/06/06 03:12:03;;;;;;;4.90;2.67;;;;;;;;;;5065395;28;20240;-69
2022/06/06 03:14:52;;;;;;;3.33;2.78;;;;;;;;;;5065465;28;20243;-69
2022/06/06 03:23:10;;;;;;;5.57;3.20;;;;;;;;;;5065237;28;20208;-69
2022/06/06 03:25:39;;;;;;;2.60;2.40;;;;;;;;;;5065260;28;20234;-69
2022/06/06 03:28:10;;;;;;;3.00;2.80;;;;;;;;;;5064953;28;20196;-69
2022/06/06 03:30:41;;;;;;;6.63;2.90;;;;;;;;;;5065004;28;20641;-69
2022/06/06 03:33:12;;;;;;;2.55;2.42;;;;;;;;;;5064788;28;20201;-69
2022/06/06 03:35:41;;;;;;;3.08;2.90;;;;;;;;;;5065165;28;20251;-69
2022/06/06 03:38:08;;;;;;;5.38;2.95;;;;;;;;;;5064709;28;20203;-69
2022/06/06 03:40:40;;;;;;;3.47;2.65;;;;;;;;;;5064741;28;20208;-69
2022/06/06 03:43:14;;;;;;;3.00;2.80;;;;;;;;;;5064852;28;20201;-69
2022/06/06 03:45:43;;;;;;;4.40;2.65;;;;;;;;;;5064221;28;20534;-69
2022/06/06 03:48:15;;;;;;;3.50;2.78;;;;;;;;;;5064660;28;20204;-69
2022/06/06 03:50:47;;;;;;;5.05;2.95;;;;;;;;;;5064677;28;20193;-69
2022/06/06 03:53:16;;;;;;;3.28;3.03;;;;;;;;;;5064626;28;20625;-69
2022/06/06 03:55:48;;;;;;;2.97;2.65;;;;;;;;;;5064475;28;20204;-69
2022/06/06 03:58:17;;;;;;;5.97;2.70;;;;;;;;;;5064439;28;20431;-69
2022/06/06 04:00:45;;;;;;;4.35;3.03;;;;;;;;;;5064527;28;20205;-69
2022/06/06 04:03:12;;;;;;;4.95;3.20;;;;;;;;;;5064531;28;20201;-69
2022/06/06 04:05:39;;;;;;;6.28;3.10;;;;;;;;;;5064100;28;20225;-69
2022/06/06 04:08:08;;;;;;;3.28;3.15;;;;;;;;;;5064136;28;20204;-69
2022/06/06 04:10:38;;;;;;;3.40;3.08;;;;;;;;;;5064199;28;20196;-69
2022/06/06 04:13:14;;;;;;;7.68;4.00;;;;;;;;;;5064614;28;20201;-69
2022/06/06 04:15:49;;;;;;;8.25;4.35;;;;;;;;;;5064155;28;20197;-69
2022/06/06 04:18:26;;;;;;;7.97;3.72;;;;;;;;;;5064019;28;20196;-69
2022/06/06 04:21:00;;;;;;;5.85;3.70;;;;;;;;;;5063980;28;20239;-69
2022/06/06 04:23:32;;;;;;;3.90;3.50;;;;;;;;;;5064148;28;20197;-68
2022/06/06 04:26:05;;;;;;;3.22;3.00;;;;;;;;;;5063936;28;20505;-69
2022/06/06 04:28:36;;;;;;;3.65;3.28;;;;;;;;;;5063881;28;20250;-69
2022/06/06 04:31:07;;;;;;;6.40;3.50;;;;;;;;;;5063882;28;20457;-69
2022/06/06 04:33:37;;;;;;;9.10;3.60;;;;;;;;;;5064187;28;20197;-69
2022/06/06 04:36:07;;;;;;;3.75;3.38;;;;;;;;;;5063700;28;20197;-69
2022/06/06 04:38:37;;;;;;;6.70;3.30;;;;;;;;;;5063846;28;20201;-69
2022/06/06 04:41:06;;;;;;;3.38;3.05;;;;;;;;;;5064052;28;20210;-69
2022/06/06 04:43:36;;;;;;;3.30;3.10;;;;;;;;;;5063528;28;20197;-69
2022/06/06 04:46:07;;;;;;;3.78;3.00;;;;;;;;;;5063338;28;20468;-69
2022/06/06 04:48:35;;;;;;;7.60;3.58;;;;;;;;;;5063588;28;20208;-69
2022/06/06 04:51:02;;;;;;;6.65;3.70;;;;;;;;;;5063670;28;20500;-70
2022/06/06 04:53:29;;;;;;;3.13;3.03;;;;;;;;;;5062889;28;20550;-70
2022/06/06 04:55:57;;;;;;;3.50;3.40;;;;;;;;;;5062366;28;20204;-70
2022/06/06 04:58:26;;;;;;;5.93;3.20;;;;;;;;;;5062676;28;20201;-74
2022/06/06 05:00:52;;;;;;;4.88;3.28;;;;;;;;;;5063565;28;20496;-70
2022/06/06 05:03:20;;;;;;;3.40;3.10;;;;;;;;;;5063362;28;20201;-70
2022/06/06 05:05:52;;;;;;;3.38;3.00;;;;;;;;;;5062767;28;20225;-70
2022/06/06 05:08:25;;;;;;;3.58;3.25;;;;;;;;;;5062977;28;20280;-70
2022/06/06 05:11:05;;;;;;;3.60;3.30;;;;;;;;;;5063006;28;20200;-70
2022/06/06 05:13:41;;;;;;;4.65;2.90;;;;;;;;;;5063045;28;20488;-70
2022/06/06 05:16:12;;;;;;;6.70;3.22;;;;;;;;;;5062961;28;20197;-70
2022/06/06 05:18:49;;;;;;;3.65;3.35;;;;;;;;;;5062956;28;20197;-69
2022/06/06 05:21:34;;;;;;;3.60;3.30;;;;;;;;;;5062731;28;20220;-70
2022/06/06 05:24:09;;;;;;;6.75;5.72;;;;;;;;;;5063017;28;20220;-70
2022/06/06 05:26:42;;;;;;;4.72;4.43;;;;;;;;;;5062792;28;20219;-70
2022/06/06 05:29:35;;;;;;;8.40;4.63;;;;;;;;;;5062815;28;20197;-70
2022/06/06 05:32:10;;;;;;;4.25;3.55;;;;;;;;;;5062725;28;20201;-70
2022/06/06 05:34:40;;;;;;;5.32;3.30;;;;;;;;;;5062849;28;20223;-70
2022/06/06 05:37:15;;;;;;;4.85;3.45;;;;;;;;;;5062463;28;20204;-70
2022/06/06 05:39:48;;;;;;;4.85;3.50;;;;;;;;;;5062740;28;20196;-70
2022/06/06 05:42:19;;;;;;;3.97;3.67;;;;;;;;;;5062317;28;20271;-70
2022/06/06 05:44:49;;;;;;;3.97;3.63;;;;;;;;;;5062799;28;20392;-70
2022/06/06 05:47:21;;;;;;;4.47;3.45;;;;;;;;;;5062413;28;20204;-70
2022/06/06 05:50:00;;;;;;;3.90;3.42;;;;;;;;;;5062372;28;20234;-70
2022/06/06 05:52:35;;;;;;;5.97;4.13;;;;;;;;;;5062462;28;20193;-70
2022/06/06 05:55:07;;;;;;;5.72;4.63;;;;;;;;;;5062681;28;20437;-70
2022/06/06 05:57:48;;;;;;;4.88;4.47;;;;;;;;;;5062175;28;20219;-70
2022/06/06 06:00:19;;;;;;;3.83;3.63;;;;;;;;;;5062493;28;20197;-70
2022/06/06 06:02:54;;;;;;;4.05;3.20;;;;;;;;;;5062212;28;20251;-70
2022/06/06 06:05:26;;;;;;;4.15;3.60;;;;;;;;;;5062296;28;20223;-70
2022/06/06 06:07:57;;;;;;;3.58;3.47;;;;;;;;;;5061535;28;20193;-70
2022/06/06 06:10:30;;;;;;;3.53;3.30;;;;;;;;;;5061249;28;20505;-70
2022/06/06 06:13:02;;;;;;;3.95;3.50;;;;;;;;;;5061795;28;20197;-70
2022/06/06 06:15:30;;;;;;;3.83;3.47;;;;;;;;;;5062079;28;20204;-70
2022/06/06 06:17:57;;;;;;;4.18;3.88;;;;;;;;;;5062071;28;20200;-70
2022/06/06 06:20:25;;;;;;;3.67;3.47;;;;;;;;;;5062043;28;20205;-70
2022/06/06 06:22:53;;;;;;;3.88;3.58;;;;;;;;;;5062031;28;20255;-70
2022/06/06 06:25:20;;;;;;;3.90;3.42;;;;;;;;;;5062165;28;20393;-70
2022/06/06 06:27:46;;;;;;;7.80;3.30;;;;;;;;;;5061820;28;20204;-70
2022/06/06 06:30:13;;;;;;;3.72;3.50;;;;;;;;;;5061980;28;20196;-70
2022/06/06 06:33:12;;;;;;;3.88;3.58;;;;;;;;;;5062280;28;20248;-70
2022/06/06 06:35:43;;;;;;;4.15;3.80;;;;;;;;;;5020322;28;20222;-70
2022/06/06 06:38:18;;;;;;;5.65;3.80;;;;;;;;;;5016892;28;20194;-70
2022/06/06 06:40:47;;;;;;;4.22;3.65;;;;;;;;;;5030371;28;20200;-70
2022/06/06 06:43:19;;;;;;;3.95;3.65;;;;;;;;;;5059155;28;20609;-70
2022/06/06 06:45:46;;;;;;;6.32;4.53;;;;;;;;;;5062114;28;20201;-70
2022/06/06 06:48:13;;;;;;;3.70;3.42;;;;;;;;;;5061501;28;20197;-70
2022/06/06 06:50:46;;;;;;;4.28;4.05;;;;;;;;;;5061832;28;20205;-70
2022/06/06 06:53:26;;;;;;;4.13;3.75;;;;;;;;;;5061593;28;20197;-70
2022/06/06 06:55:57;;;;;;;4.15;3.85;;;;;;;;;;5061908;28;20197;-70
2022/06/06 06:58:38;;;;;;;5.25;4.60;;;;;;;;;;5061799;28;20198;-70
2022/06/06 07:01:08;;;;;;;4.18;3.88;;;;;;;;;;5060043;28;20527;-70
2022/06/06 07:09:28;;;;;;;4.05;3.85;;;;;;;;;;5061671;28;20392;-70
2022/06/06 07:12:08;;;;;;;4.07;3.63;;;;;;;;;;5061459;28;20201;-70
2022/06/06 07:14:53;;;;;;;4.00;3.80;;;;;;;;;;5061790;28;20512;-70
2022/06/06 07:17:21;;;;;;;3.92;3.67;;;;;;;;;;5061273;28;20220;-70
2022/06/06 07:19:49;;;;;;;4.55;4.15;;;;;;;;;;5062410;28;20497;-70
2022/06/06 07:22:17;;;;;;;4.43;3.63;;;;;;;;;;5065093;28;20216;-70
2022/06/06 07:24:44;;;;;;;4.63;3.60;;;;;;;;;;5065492;28;20189;-70
2022/06/06 07:27:11;;;;;;;5.18;3.35;;;;;;;;;;5064792;28;20197;-70
2022/06/06 07:29:38;;;;;;;3.55;3.28;;;;;;;;;;5065180;28;20205;-69
2022/06/06 07:32:18;;;;;;;4.80;3.53;;;;;;;;;;5065281;28;20193;-70
2022/06/06 07:34:55;;;;;;;4.00;3.38;;;;;;;;;;5064969;28;20204;-70
2022/06/06 07:37:30;;;;;;;3.92;3.53;;;;;;;;;;5064908;28;20204;-70
2022/06/06 07:40:01;;;;;;;4.20;3.40;;;;;;;;;;5064801;28;20204;-70
2022/06/06 07:42:35;;;;;;;4.13;3.63;;;;;;;;;;5064839;28;20217;-70
2022/06/06 07:45:06;;;;;;;4.30;3.42;;;;;;;;;;5064681;28;20219;-70
2022/06/06 07:47:42;;;;;;;3.20;3.10;;;;;;;;;;5064383;28;20204;-70
2022/06/06 07:50:12;;;;;;;3.60;3.28;;;;;;;;;;5064780;28;20427;-70
2022/06/06 07:52:42;;;;;;;5.05;3.35;;;;;;;;;;5064638;28;20193;-70
2022/06/06 07:55:11;;;;;;;5.63;3.53;;;;;;;;;;5064525;28;20204;-70
2022/06/06 07:57:40;;;;;;;3.80;3.50;;;;;;;;;;5064324;28;20204;-70
2022/06/06 08:00:07;;;;;;;3.72;3.47;;;;;;;;;;5064763;28;20476;-70
2022/06/06 08:02:38;;;;;;;3.60;3.35;;;;;;;;;;5064594;28;20220;-70
2022/06/06 08:05:10;;;;;;;3.83;3.63;;;;;;;;;;5064499;28;20304;-70
2022/06/06 08:07:39;;;;;;;4.13;3.10;;;;;;;;;;5049518;28;20268;-70
2022/06/06 08:10:13;;;;;;;3.30;3.05;;;;;;;;;;5044171;28;20198;-70
2022/06/06 08:12:47;;;;;;;2.97;2.88;;;;;;;;;;5044487;28;20194;-70
2022/06/06 08:15:18;;;;;;;3.83;3.53;;;;;;;;;;5044305;28;20244;-70
2022/06/06 08:18:02;;;;;;;3.33;3.17;;;;;;;;;;5044110;28;20501;-70
2022/06/06 08:20:34;;;;;;;3.80;3.00;;;;;;;;;;5043527;28;20450;-70
2022/06/06 08:23:02;;;;;;;5.75;3.33;;;;;;;;;;5044205;28;20276;-70
2022/06/06 08:25:30;;;;;;;5.35;3.22;;;;;;;;;;5044043;28;20233;-69
2022/06/06 08:27:57;;;;;;;2.97;2.65;;;;;;;;;;5043902;28;20204;-68
2022/06/06 08:30:24;;;;;;;2.85;2.60;;;;;;;;;;5043788;28;20205;-69
2022/06/06 08:32:50;;;;;;;4.47;2.83;;;;;;;;;;5044036;28;20194;-69
2022/06/06 08:35:17;;;;;;;3.05;2.65;;;;;;;;;;5043756;28;20505;-69
2022/06/06 08:37:58;;;;;;;4.18;2.47;;;;;;;;;;5043843;28;20270;-69
2022/06/06 08:40:44;;;;;;;6.90;2.95;;;;;;;;;;5044081;28;20489;-69
2022/06/06 08:43:17;;;;;;;3.40;3.10;;;;;;;;;;5043781;28;20218;-69
2022/06/06 08:45:49;;;;;;;2.97;2.67;;;;;;;;;;5043905;28;20420;-70
2022/06/06 08:48:17;;;;;;;2.60;2.40;;;;;;;;;;5043583;28;20494;-70
2022/06/06 08:50:59;;;;;;;3.92;2.50;;;;;;;;;;5043640;28;20212;-70
2022/06/06 08:53:36;;;;;;;4.60;2.85;;;;;;;;;;5043726;28;20220;-70
2022/06/06 08:56:18;;;;;;;2.47;2.38;;;;;;;;;;5043357;28;20568;-69
2022/06/06 08:58:54;;;;;;;2.75;2.55;;;;;;;;;;5043693;28;20502;-69
2022/06/06 09:01:24;;;;;;;2.47;2.28;;;;;;;;;;5043690;28;20205;-69
2022/06/06 09:04:07;;;;;;;2.20;2.00;;;;;;;;;;5043311;28;20229;-69
2022/06/06 09:06:48;;;;;;;3.47;2.35;;;;;;;;;;5042974;28;20533;-69
2022/06/06 09:09:29;;;;;;;2.13;1.92;;;;;;;;;;5043383;28;20220;-69
2022/06/06 09:12:19;;;;;;;1.90;1.80;;;;;;;;;;5043303;28;20272;-69
2022/06/06 09:14:59;;;;;;;2.17;1.92;;;;;;;;;;5042932;28;20220;-69
2022/06/06 09:17:44;;;;;;;5.45;2.10;;;;;;;;;;5042788;28;20197;-69
2022/06/06 09:20:37;;;;;;;1.85;1.73;;;;;;;;;;5043157;28;20205;-68
2022/06/06 09:23:25;;;;;;;2.05;1.95;;;;;;;;;;5042871;28;20409;-69
2022/06/06 09:25:58;;;;;;;3.33;1.83;;;;;;;;;;5039509;28;20560;-68
2022/06/06 09:28:39;;;;;;;1.77;1.75;;;;;;;;;;5042991;28;20197;-68
2022/06/06 09:31:21;;;;;;;2.00;1.75;;;;;;;;;;5042991;28;20198;-68
2022/06/06 09:34:18;;;;;;;3.30;1.80;;;;;;;;;;5043175;28;20516;-68
2022/06/06 09:36:46;;;;;;;3.30;3.10;;;;;;;;;;5000908;28;20206;-68
2022/06/06 09:39:21;;;;;;;2.10;1.98;;;;;;;;;;5033407;28;20198;-68
2022/06/06 09:41:53;;;;;;;2.30;1.50;;;;;;;;;;5042445;28;20204;-69
2022/06/06 09:44:23;;;;;;;3.28;1.40;;;;;;;;;;5042801;28;20409;-68
2022/06/06 09:47:04;;;;;;;2.55;1.70;;;;;;;;;;5042543;28;20220;-68
2022/06/06 09:49:44;;;;;;;2.80;1.50;;;;;;;;;;5041067;28;20201;-69
2022/06/06 09:52:29;;;;;;;1.98;1.30;;;;;;;;;;5042431;28;20527;-68
2022/06/06 10:01:14;;;;;;;1.67;1.58;;;;;;;;;;5042626;28;20228;-69
2022/06/06 10:03:56;;;;;;;1.70;1.60;;;;;;;;;;5042351;28;20221;-69
2022/06/06 10:06:43;;;;;;;1.65;1.52;;;;;;;;;;5041565;28;20224;-69
2022/06/06 10:09:27;;;;;;;2.35;1.50;;;;;;;;;;5042207;28;20235;-69
2022/06/06 10:12:03;;;;;;;1.40;1.40;;;;;;;;;;5041992;28;20193;-69
2022/06/06 10:14:37;;;;;;;1.60;1.50;;;;;;;;;;5042056;28;20200;-69
2022/06/06 10:17:19;;;;;;;1.02;1.00;;;;;;;;;;5042183;28;20279;-69
2022/06/06 10:19:52;;;;;;;2.47;1.25;;;;;;;;;;5042103;28;20504;-69
2022/06/06 10:22:29;;;;;;;2.28;1.10;;;;;;;;;;5041890;28;20197;-69
2022/06/06 10:25:11;;;;;;;2.25;1.33;;;;;;;;;;5041957;28;20196;-69
2022/06/06 10:27:59;;;;;;;3.28;1.35;;;;;;;;;;5033112;28;20197;-69
2022/06/06 10:30:29;;;;;;;2.13;1.17;;;;;;;;;;5041849;28;20224;-70
2022/06/06 10:33:02;;;;;;;1.27;1.23;;;;;;;;;;5041646;28;20223;-69
2022/06/06 10:35:36;;;;;;;1.45;1.25;;;;;;;;;;5041596;28;20198;-69
2022/06/06 10:38:12;;;;;;;2.92;1.25;;;;;;;;;;5041262;28;20197;-69
2022/06/06 10:40:54;;;;;;;2.72;1.42;;;;;;;;;;5041655;28;20224;-69
2022/06/06 10:43:38;;;;;;;3.05;1.20;;;;;;;;;;5041823;28;20521;-69
2022/06/06 10:46:10;;;;;;;1.20;1.10;;;;;;;;;;5034493;28;20236;-69
2022/06/06 10:48:42;;;;;;;6.72;1.60;;;;;;;;;;5041548;28;20219;-68
2022/06/06 10:51:40;;;;;;;1.35;1.20;;;;;;;;;;5041518;28;20198;-68
2022/06/06 10:54:27;;;;;;;1.40;1.40;;;;;;;;;;5041663;28;20391;-69
2022/06/06 10:57:05;;;;;;;1.10;1.05;;;;;;;;;;5044992;28;20201;-69
2022/06/06 10:59:49;;;;;;;1.25;1.13;;;;;;;;;;5045706;28;20205;-70
2022/06/06 11:02:39;;;;;;;0.80;0.80;;;;;;;;;;5045232;28;20204;-68
2022/06/06 11:05:19;;;;;;;1.55;1.30;;;;;;;;;;5044902;28;20459;-69
2022/06/06 11:07:59;;;;;;;2.25;1.17;;;;;;;;;;5045295;28;20197;-69
2022/06/06 11:10:32;;;;;;;0.90;0.90;;;;;;;;;;5045301;28;20201;-70
2022/06/06 11:13:16;;;;;;;1.30;1.20;;;;;;;;;;5045275;28;20193;-69
2022/06/06 11:15:56;;;;;;;1.65;0.85;;;;;;;;;;5045276;28;20231;-70
2022/06/06 11:18:37;;;;;;;1.15;1.15;;;;;;;;;;5045256;28;20472;-69
2022/06/06 11:21:19;;;;;;;1.85;1.10;;;;;;;;;;5044940;28;20220;-69
2022/06/06 11:23:48;;;;;;;1.95;0.95;;;;;;;;;;5044923;28;20217;-70
2022/06/06 11:26:27;;;;;;;1.10;1.10;;;;;;;;;;5044982;28;20205;-70
2022/06/06 11:29:03;;;;;;;2.15;0.80;;;;;;;;;;5045013;28;20197;-70
2022/06/06 11:31:41;;;;;;;1.38;0.90;;;;;;;;;;5044653;28;20235;-69
2022/06/06 11:34:15;;;;;;;2.42;1.10;;;;;;;;;;5044697;28;20277;-69
2022/06/06 11:36:55;;;;;;;4.22;0.90;;;;;;;;;;5044831;28;20357;-69
2022/06/06 11:39:40;;;;;;;1.25;1.08;;;;;;;;;;5044779;28;20188;-69
2022/06/06 11:42:23;;;;;;;2.45;1.30;;;;;;;;;;5044861;28;20477;-70
2022/06/06 11:45:08;;;;;;;1.15;1.15;;;;;;;;;;5044605;28;20247;-70
2022/06/06 11:47:42;;;;;;;1.58;1.48;;;;;;;;;;5044694;28;20523;-69
2022/06/06 11:50:16;;;;;;;1.88;1.30;;;;;;;;;;5044907;28;20496;-69
2022/06/06 11:52:51;;;;;;;1.20;1.20;;;;;;;;;;5044331;28;20288;-69
2022/06/06 11:55:29;;;;;;;2.40;1.17;;;;;;;;;;5044605;28;20207;-70
2022/06/06 11:58:14;;;;;;;2.40;1.10;;;;;;;;;;5044203;28;20244;-69
2022/06/06 12:00:49;;;;;;;0.98;0.98;;;;;;;;;;5044478;28;20197;-68
2022/06/06 12:03:33;;;;;;;4.38;1.30;;;;;;;;;;5043959;28;20220;-68
2022/06/06 12:06:14;;;;;;;1.67;1.10;;;;;;;;;;5043261;28;20563;-69
2022/06/06 12:08:47;;;;;;;1.45;1.10;;;;;;;;;;5044195;28;20197;-69
2022/06/06 12:11:35;;;;;;;1.90;1.17;;;;;;;;;;5043954;28;20434;-70
2022/06/06 12:14:08;;;;;;;3.45;1.10;;;;;;;;;;5043979;28;20201;-69
2022/06/06 12:16:40;;;;;;;2.00;1.17;;;;;;;;;;5043600;28;20209;-70
2022/06/06 12:19:30;;;;;;;1.65;1.30;;;;;;;;;;5043954;28;20197;-69
2022/06/06 12:22:15;;;;;;;1.30;1.20;;;;;;;;;;5043893;28;20239;-70
2022/06/06 12:24:57;;;;;;;1.25;1.20;;;;;;;;;;5043533;28;20217;-69
2022/06/06 12:27:27;;;;;;;1.50;1.40;;;;;;;;;;5043612;28;20197;-69
2022/06/06 12:30:05;;;;;;;4.78;1.20;;;;;;;;;;5043887;28;20213;-69
2022/06/06 12:32:43;;;;;;;2.58;1.17;;;;;;;;;;5043803;28;20435;-69
2022/06/06 12:35:12;;;;;;;2.15;1.20;;;;;;;;;;5043961;28;20511;-69
2022/06/06 12:37:42;;;;;;;2.58;1.40;;;;;;;;;;5043316;28;20198;-69
2022/06/06 12:40:12;;;;;;;4.13;1.38;;;;;;;;;;5043585;28;20493;-70
2022/06/06 12:42:47;;;;;;;1.55;1.45;;;;;;;;;;5043377;28;20203;-70
2022/06/06 12:45:24;;;;;;;1.88;1.13;;;;;;;;;;5043267;28;20223;-69
2022/06/06 12:48:01;;;;;;;2.50;1.38;;;;;;;;;;5043245;28;20204;-69
2022/06/06 12:50:32;;;;;;;1.27;1.27;;;;;;;;;;5043424;28;20289;-70
2022/06/06 12:53:22;;;;;;;1.25;1.25;;;;;;;;;;5043629;28;20505;-70
2022/06/06 12:58:39;;;;;;;1.52;1.30;;;;;;;;;;5042909;28;20228;-70
2022/06/06 13:04:11;;;;;;;2.35;1.27;;;;;;;;;;5042989;28;20260;-70
2022/06/06 13:06:44;;;;;;;1.10;1.10;;;;;;;;;;5042775;28;20263;-69
2022/06/06 13:09:32;;;;;;;2.38;1.35;;;;;;;;;;5042881;28;20232;-69
2022/06/06 13:12:09;;;;;;;1.77;1.10;;;;;;;;;;5043524;28;20197;-69
2022/06/06 13:14:52;;;;;;;1.52;0.98;;;;;;;;;;5042761;28;20189;-69
2022/06/06 13:17:25;;;;;;;1.70;0.93;;;;;;;;;;5041988;28;20198;-69
2022/06/06 13:20:09;;;;;;;2.72;1.33;;;;;;;;;;5042865;28;20201;-69
2022/06/06 13:22:47;;;;;;;1.10;1.10;;;;;;;;;;5042706;28;20205;-69
2022/06/06 13:25:22;;;;;;;1.42;1.33;;;;;;;;;;5042864;28;20536;-70
2022/06/06 13:28:06;;;;;;;2.70;1.10;;;;;;;;;;5042647;28;20205;-70
2022/06/06 13:30:36;;;;;;;1.10;1.10;;;;;;;;;;5042963;28;20203;-70
2022/06/06 13:33:10;;;;;;;2.63;1.13;;;;;;;;;;5042413;28;20227;-70
2022/06/06 13:35:42;;;;;;;0.93;0.80;;;;;;;;;;5042551;28;20220;-70
2022/06/06 13:38:15;;;;;;;2.92;0.85;;;;;;;;;;5042319;28;20197;-70
2022/06/06 13:40:43;;;;;;;1.65;1.00;;;;;;;;;;5042368;28;20196;-70
2022/06/06 13:43:16;;;;;;;0.80;0.80;;;;;;;;;;5042328;28;20208;-70
2022/06/06 13:45:47;;;;;;;2.38;1.02;;;;;;;;;;5042044;28;20264;-70
2022/06/06 13:48:32;;;;;;;1.02;1.02;;;;;;;;;;5042038;28;20198;-67
2022/06/06 13:51:02;;;;;;;2.63;1.10;;;;;;;;;;5042124;28;20204;-69
2022/06/06 13:53:43;;;;;;;1.38;1.10;;;;;;;;;;5042120;28;20225;-69
2022/06/06 13:56:16;;;;;;;2.53;1.08;;;;;;;;;;5042179;28;20209;-69
2022/06/06 13:58:50;;;;;;;4.20;1.38;;;;;;;;;;5041962;28;20205;-69
2022/06/06 14:01:27;;;;;;;3.25;1.30;;;;;;;;;;5042036;28;20197;-69
2022/06/06 14:04:05;;;;;;;1.65;1.00;;;;;;;;;;5041788;28;20236;-69
2022/06/06 14:06:53;;;;;;;1.02;0.90;;;;;;;;;;5041886;28;20228;-69
2022/06/06 14:09:34;;;;;;;3.13;1.15;;;;;;;;;;5041820;28;20566;-69
2022/06/06 14:12:14;;;;;;;1.30;1.17;;;;;;;;;;5041665;28;20505;-69
2022/06/06 14:14:42;;;;;;;2.30;1.10;;;;;;;;;;5041607;28;20193;-69
2022/06/06 14:17:10;;;;;;;1.48;1.40;;;;;;;;;;5041599;28;20256;-69
2022/06/06 14:19:52;;;;;;;2.67;1.10;;;;;;;;;;5041894;28;20197;-69
2022/06/06 14:22:26;;;;;;;1.90;1.02;;;;;;;;;;5041928;28;20238;-69
2022/06/06 14:24:54;;;;;;;1.02;0.90;;;;;;;;;;5042265;28;20224;-69
2022/06/06 14:27:21;;;;;;;1.23;1.08;;;;;;;;;;5041612;28;20224;-69
2022/06/06 14:29:54;;;;;;;1.52;0.85;;;;;;;;;;5044580;28;20204;-69
2022/06/06 14:32:22;;;;;;;4.75;1.08;;;;;;;;;;5046010;28;20201;-69
2022/06/06 14:34:50;;;;;;;4.40;1.20;;;;;;;;;;5046043;28;20189;-69
2022/06/06 14:37:17;;;;;;;3.50;1.10;;;;;;;;;;5045485;28;20220;-69
2022/06/06 14:39:45;;;;;;;1.40;1.13;;;;;;;;;;5045625;28;20216;-70
2022/06/06 14:42:13;;;;;;;1.05;0.90;;;;;;;;;;5045732;28;20389;-69
2022/06/06 14:44:42;;;;;;;0.85;0.85;;;;;;;;;;5045655;28;20282;-68
2022/06/06 14:47:13;;;;;;;1.17;1.17;;;;;;;;;;5045472;28;20204;-69
2022/06/06 14:49:42;;;;;;;3.60;1.30;;;;;;;;;;5045443;28;20220;-69
2022/06/06 14:52:10;;;;;;;5.88;1.52;;;;;;;;;;5045416;28;20197;-68
2022/06/06 14:54:37;;;;;;;3.53;1.23;;;;;;;;;;5045428;28;20206;-69
2022/06/06 14:57:05;;;;;;;3.10;1.25;;;;;;;;;;5045201;28;20197;-69
2022/06/06 14:59:38;;;;;;;1.23;1.23;;;;;;;;;;5045552;28;20580;-70
2022/06/06 15:02:13;;;;;;;1.30;1.25;;;;;;;;;;5045309;28;20236;-69
2022/06/06 15:04:40;;;;;;;1.95;1.10;;;;;;;;;;5045094;28;20223;-69
2022/06/06 15:07:07;;;;;;;1.58;1.42;;;;;;;;;;5045424;28;20220;-69
2022/06/06 15:09:37;;;;;;;1.33;1.20;;;;;;;;;;5045401;28;20204;-70
2022/06/06 15:12:04;;;;;;;1.17;1.17;;;;;;;;;;5045190;28;20213;-70
2022/06/06 15:14:32;;;;;;;1.50;1.35;;;;;;;;;;5044945;28;20194;-70
2022/06/06 15:17:00;;;;;;;1.83;1.35;;;;;;;;;;5044789;28;20198;-69
2022/06/06 15:19:30;;;;;;;1.58;1.23;;;;;;;;;;5044833;28;20213;-70
2022/06/06 15:21:57;;;;;;;1.60;1.50;;;;;;;;;;5044788;28;20201;-68
2022/06/06 15:24:26;;;;;;;1.42;1.33;;;;;;;;;;5045343;28;20284;-69
2022/06/06 15:26:54;;;;;;;4.55;1.33;;;;;;;;;;5044937;28;20201;-69
2022/06/06 15:29:24;;;;;;;2.03;1.52;;;;;;;;;;5045099;28;20197;-69
2022/06/06 15:31:55;;;;;;;3.00;1.50;;;;;;;;;;5044860;28;20501;-68
2022/06/06 15:34:31;;;;;;;2.67;1.40;;;;;;;;;;5044769;28;20194;-68
2022/06/06 15:37:02;;;;;;;1.85;1.40;;;;;;;;;;5044583;28;20204;-69
2022/06/06 15:39:34;;;;;;;3.13;1.50;;;;;;;;;;5044499;28;20204;-69
2022/06/06 15:42:05;;;;;;;3.85;1.50;;;;;;;;;;5043631;28;20244;-69
2022/06/06 15:44:38;;;;;;;2.08;1.10;;;;;;;;;;5044105;28;20221;-69